Terminal Aerodrome Forecast
Issued by NWS

Home | Current Version | Previous Version | Text Only | Print | Product List | Glossary On
Versions: 1 2 3 4 5 6 7 8 9 10 11 12 13 14 15 16 17 18 19 20 21
000
FTUS44 KLZK 230703 AAA
TAFLLQ
TAF AMD
KLLQ 230703Z 2307/2406 28009KT P6SM SCT020 OVC045
      TEMPO 2307/2311 5SM BR BKN015
     FM231400 26008KT P6SM OVC020
     FM231900 29008KT P6SM BKN020 OVC040
     FM240100 31004KT P6SM OVC050=

USA.gov is the U.S. government's official web portal to all federal, state and local government web resources and services.